Latest Weather Observations for Birdsville

IDQ60801

Issued at 11:02 pm EST Saturday 30 July 2016 (issued every 30 minutes, with the page automatically refreshed every 10 minutes)

About weather observations | Map of weather stations | Latest weather observations for QLD | Other Formats
Station Details ID: 038026 Name: BIRDSVILLE AIRPORT Lat: -25.90 Lon: 139.35 Height: 46.6 m
Data from the previous 72 hours. | See also: Recent months at Birdsville
Date/Time
EST
Temp
°C
App
Temp
°C
Dew
Point
°C
Rel
Hum
%
Delta-T
°C
Wind Press
QNH
hPa
Press
MSL
hPa
Rain since
9am
mm
Dir  Spd
km/h
Gust
km/h
Spd
kts
Gust
kts
30/11:00pm 13.7 9.9 -1.1 36 6.0 SSE 9 11 5 6 1019.6 - 0.0
30/10:30pm 13.9 9.4 -0.5 37 5.9 SE 13 15 7 8 1019.4 - 0.0
30/10:00pm 14.6 10.4 -1.1 34 6.5 SE 11 13 6 7 1019.5 - 0.0
30/09:30pm 15.2 11.8 -0.9 33 6.7 SSE 7 9 4 5 1019.6 - 0.0
30/09:00pm 15.4 11.9 -1.2 32 6.8 S 7 9 4 5 1019.5 1019.5 0.0
30/08:30pm 15.7 11.8 -1.4 31 7.1 SSW 9 11 5 6 1019.4 - 0.0
30/08:00pm 16.7 13.4 -0.9 30 7.4 S 6 7 3 4 1019.1 - 0.0
30/07:30pm 17.3 13.5 -0.9 29 7.7 SW 9 11 5 6 1018.9 - 0.0
30/07:00pm 18.5 15.1 -0.8 27 8.3 SW 7 9 4 5 1018.5 - 0.0
30/06:30pm 20.1 17.6 -1.1 24 9.2 S 2 6 1 3 1018.2 - 0.0
30/06:00pm 21.4 19.2 -1.8 21 10.0 CALM 0 6 0 3 1018.2 1018.2 0.0
30/05:30pm 21.9 18.3 -2.0 20 10.3 SSW 7 13 4 7 1018.2 - 0.0
30/05:00pm 22.3 18.4 -1.7 20 10.5 S 9 15 5 8 1018.2 - 0.0
30/04:30pm 22.4 18.5 -1.6 20 10.5 SE 9 13 5 7 1018.3 - 0.0
30/04:00pm 22.3 18.0 -1.7 20 10.5 S 11 19 6 10 1018.5 - 0.0
30/03:30pm 22.3 19.0 -1.1 21 10.3 ESE 6 9 3 5 1018.6 - 0.0
30/03:00pm 22.9 20.4 -1.2 20 10.6 ESE 2 7 1 4 1018.9 1018.9 0.0
30/02:30pm 21.9 18.4 -1.4 21 10.2 ESE 7 11 4 6 1019.4 - 0.0
30/02:00pm 22.4 19.0 -0.3 22 10.2 ESE 7 11 4 6 1019.7 - 0.0
30/01:30pm 21.5 18.2 0.1 24 9.6 ESE 7 13 4 7 1020.3 - 0.0
30/01:00pm 21.1 18.0 0.3 25 9.3 ESE 6 13 3 7 1020.9 - 0.0
30/12:30pm 20.7 16.7 0.5 26 9.1 ESE 11 17 6 9 1021.4 - 0.0
30/12:00pm 20.3 16.0 0.7 27 8.8 ENE 13 17 7 9 1021.8 1021.8 0.0
30/11:30am 19.7 14.2 0.7 28 8.5 NE 19 24 10 13 1022.1 - 0.0
30/11:00am 18.8 13.3 0.9 30 8.0 ENE 19 24 10 13 1022.4 - 0.0
30/10:30am 18.2 13.3 2.1 34 7.3 ENE 17 20 9 11 1022.8 - 0.0
30/10:00am 16.7 11.8 2.3 38 6.5 E 17 20 9 11 1023.0 - 0.0
30/09:30am 15.5 11.5 3.0 43 5.7 ESE 13 19 7 10 1023.1 - 0.0
30/09:00am 12.6 9.4 3.0 52 4.2 ESE 9 13 5 7 1022.8 1022.8 0.0
30/08:30am 9.8 6.9 2.4 60 3.1 SE 7 9 4 5 1022.7 - 0.0
30/08:00am 7.9 4.5 2.0 66 2.4 SSE 9 11 5 6 1022.5 - 0.0
30/07:30am 6.2 3.1 1.1 70 2.0 SSE 7 9 4 5 1022.1 - 0.0
30/07:00am 6.3 3.2 1.4 71 2.0 S 7 9 4 5 1022.0 - 0.0
30/06:30am 6.2 4.2 0.1 65 2.4 CALM 0 0 0 0 1021.9 - 0.0
30/06:00am 8.5 6.6 2.7 67 2.4 ESE 2 7 1 4 1021.7 1021.7 0.0
30/05:30am 8.0 5.0 2.3 67 2.4 ESE 7 9 4 5 1021.3 - 0.0
30/05:00am 7.6 4.7 1.7 66 2.4 ESE 6 7 3 4 1021.5 - 0.0
30/04:30am 7.5 4.1 1.8 67 2.3 ESE 9 11 5 6 1021.3 - 0.0
30/04:00am 8.9 5.6 2.5 64 2.7 SE 9 11 5 6 1021.6 - 0.0
30/03:30am 8.9 5.9 2.0 62 2.9 S 7 9 4 5 1021.8 - 0.0
30/03:00am 8.9 5.9 1.8 61 2.9 S 7 9 4 5 1021.7 1021.7 0.0
30/02:30am 9.5 6.5 1.9 59 3.2 SSE 7 9 4 5 1021.8 - 0.0
30/02:00am 10.4 7.1 2.5 58 3.4 SE 9 13 5 7 1021.9 - 0.0
30/01:30am 10.0 6.6 1.9 57 3.4 S 9 11 5 6 1022.0 - 0.0
30/01:00am 10.0 6.5 1.4 55 3.6 S 9 11 5 6 1022.1 - 0.0
30/12:30am 11.1 7.7 1.9 53 3.9 SSE 9 11 5 6 1022.2 - 0.0
30/12:00am 11.6 7.8 1.8 51 4.2 SSE 11 13 6 7 1022.5 1022.5 0.0
 
Date/Time
EST
Temp
°C
App
Temp
°C
Dew
Point
°C
Rel
Hum
%
Delta-T
°C
Wind Press
QNH
hPa
Press
MSL
hPa
Rain since
9am
mm
Dir  Spd
km/h
Gust
km/h
Spd
kts
Gust
kts
29/11:30pm 12.0 8.2 1.9 50 4.3 SE 11 13 6 7 1022.5 - 0.0
29/11:00pm 12.4 8.6 1.7 48 4.6 SSE 11 13 6 7 1022.7 - 0.0
29/10:30pm 12.8 9.0 1.8 47 4.7 SSE 11 15 6 8 1022.8 - 0.0
29/10:00pm 13.3 9.9 1.6 45 5.0 SSE 9 11 5 6 1022.8 - 0.0
29/09:30pm 13.9 10.1 1.5 43 5.4 S 11 13 6 7 1022.7 - 0.0
29/09:00pm 15.2 11.1 2.1 41 5.8 S 13 15 7 8 1022.6 1022.6 0.0
29/08:30pm 15.6 11.4 1.7 39 6.1 S 13 15 7 8 1022.4 - 0.0
29/08:00pm 16.0 12.1 1.3 37 6.5 S 11 13 6 7 1022.3 - 0.0
29/07:30pm 16.7 12.8 1.2 35 6.8 S 11 13 6 7 1021.9 - 0.0
29/07:00pm 17.6 13.8 1.6 34 7.2 S 11 11 6 6 1021.6 - 0.0
29/06:30pm 18.9 15.0 1.4 31 7.9 S 11 13 6 7 1021.5 - 0.0
29/06:00pm 20.2 16.0 1.6 29 8.5 SSE 13 17 7 9 1021.3 1021.3 0.0
29/05:30pm 20.9 16.6 1.2 27 9.0 SSE 13 17 7 9 1021.3 - 0.0
29/05:00pm 21.5 16.8 1.2 26 9.3 SSE 15 20 8 11 1021.3 - 0.0
29/04:30pm 21.4 16.7 1.1 26 9.3 S 15 20 8 11 1021.5 - 0.0
29/04:00pm 21.4 17.6 1.6 27 9.1 ESE 11 15 6 8 1021.6 - 0.0
29/03:30pm 21.3 17.7 0.5 25 9.4 SSE 9 17 5 9 1021.8 - 0.0
29/03:00pm 21.2 17.8 2.0 28 8.9 ESE 9 15 5 8 1022.0 1022.0 0.0
29/02:30pm 20.9 17.9 2.2 29 8.7 E 7 15 4 8 1022.2 - 0.0
29/02:00pm 21.1 18.4 2.4 29 8.8 N 6 9 3 5 1022.6 - 0.0
29/01:30pm 20.1 16.8 2.5 31 8.2 E 9 13 5 7 1023.0 - 0.0
29/01:00pm 19.6 16.3 2.5 32 7.9 E 9 17 5 9 1023.6 - 0.0
29/12:30pm 19.5 15.5 2.8 33 7.8 E 13 20 7 11 1024.1 - 0.0
29/12:00pm 18.7 14.7 2.9 35 7.3 ENE 13 22 7 12 1024.8 1024.8 0.0
29/11:30am 18.1 14.3 3.9 39 6.7 E 13 24 7 13 1025.3 - 0.0
29/11:00am 17.2 13.1 4.2 42 6.1 ESE 15 20 8 11 1025.5 - 0.0
29/10:30am 16.0 12.0 4.7 47 5.3 ESE 15 19 8 10 1025.6 - 0.0
29/10:00am 13.7 9.6 4.3 53 4.3 ESE 15 19 8 10 1025.9 - 0.0
29/09:30am 11.5 7.6 3.5 58 3.5 SE 13 15 7 8 1025.7 - 0.0
29/09:00am 9.4 6.5 2.7 63 2.8 S 7 11 4 6 1025.7 1025.7 0.0
29/08:30am 7.2 3.7 1.3 66 2.4 SSW 9 11 5 6 1025.6 - 0.0
29/08:00am 5.7 2.2 1.1 72 1.8 SSW 9 11 5 6 1025.3 - 0.0
29/07:30am 5.0 1.0 0.6 73 1.7 SSW 11 13 6 7 1025.1 - 0.0
29/07:00am 5.3 2.2 1.1 74 1.7 S 7 9 4 5 1024.6 - 0.0
29/06:30am 5.3 2.4 1.2 75 1.6 S 6 7 3 4 1024.5 - 0.0
29/06:00am 5.7 2.6 1.1 72 1.8 S 7 9 4 5 1024.2 1024.3 0.0
29/05:30am 6.4 2.9 1.5 71 2.0 S 9 11 5 6 1024.0 - 0.0
29/05:00am 6.1 2.5 0.9 69 2.1 S 9 11 5 6 1023.9 - 0.0
29/04:30am 6.3 2.8 1.0 69 2.1 S 9 11 5 6 1024.0 - 0.0
29/04:00am 6.9 3.5 1.6 69 2.1 S 9 11 5 6 1024.1 - 0.0
29/03:30am 7.4 3.9 1.5 66 2.4 S 9 11 5 6 1024.3 - 0.0
29/03:00am 8.2 4.9 2.2 66 2.5 SSE 9 13 5 7 1024.5 1024.5 0.0
29/02:30am 7.0 3.5 1.5 68 2.2 S 9 11 5 6 1025.0 - 0.0
29/02:00am 7.6 3.7 1.2 64 2.6 SSW 11 13 6 7 1025.4 - 0.0
29/01:30am 8.2 4.9 2.2 66 2.5 S 9 9 5 5 1025.6 - 0.0
29/01:00am 8.1 4.3 1.9 65 2.6 S 11 11 6 6 1025.6 - 0.0
29/12:30am 8.9 5.6 2.3 63 2.8 SSW 9 11 5 6 1025.8 - 0.0
29/12:00am 9.4 5.6 2.0 60 3.1 S 11 11 6 6 1026.0 1026.0 0.0
 
Date/Time
EST
Temp
°C
App
Temp
°C
Dew
Point
°C
Rel
Hum
%
Delta-T
°C
Wind Press
QNH
hPa
Press
MSL
hPa
Rain since
9am
mm
Dir  Spd
km/h
Gust
km/h
Spd
kts
Gust
kts
28/11:30pm 9.9 6.6 2.3 59 3.2 S 9 9 5 5 1026.2 - 0.0
28/11:00pm 11.7 8.5 3.2 56 3.7 SSE 9 11 5 6 1026.3 - 0.0
28/10:30pm 11.7 8.6 3.5 57 3.6 SE 9 11 5 6 1026.2 - 0.0
28/10:00pm 11.5 8.6 2.5 54 3.9 S 7 9 4 5 1026.1 - 0.0
28/09:30pm 12.3 9.5 3.0 53 4.1 SE 7 9 4 5 1025.8 - 0.0
28/09:00pm 13.2 9.9 2.7 49 4.6 SSE 9 11 5 6 1025.8 1025.8 0.0
28/08:30pm 14.4 10.4 2.9 46 5.2 S 13 17 7 9 1025.7 - 0.0
28/08:00pm 15.6 11.3 3.1 43 5.7 S 15 19 8 10 1025.5 - 0.0
28/07:30pm 16.1 11.8 3.2 42 5.9 S 15 17 8 9 1025.1 - 0.0
28/07:00pm 16.8 12.5 3.1 40 6.3 S 15 17 8 9 1025.1 - 0.0
28/06:30pm 17.7 12.9 2.8 37 6.8 S 17 20 9 11 1024.9 - 0.0
28/06:00pm 18.6 13.2 2.4 34 7.4 S 20 26 11 14 1024.6 1024.6 0.0
28/05:30pm 19.3 13.5 2.2 32 7.9 SSE 22 28 12 15 1024.5 - 0.0
28/05:00pm 19.9 14.7 2.3 31 8.1 S 19 28 10 15 1024.3 - 0.0
28/04:30pm 20.1 14.2 2.0 30 8.3 SSE 22 26 12 14 1024.3 - 0.0
28/04:00pm 20.4 15.0 2.3 30 8.4 SE 20 26 11 14 1024.4 - 0.0
28/03:30pm 20.3 15.0 1.7 29 8.5 SSE 19 28 10 15 1024.7 - 0.0
28/03:00pm 19.9 14.6 1.8 30 8.3 SSE 19 26 10 14 1024.8 1024.7 0.0
28/02:30pm 19.3 14.4 1.8 31 8.0 SSE 17 24 9 13 1025.1 - 0.0
28/02:00pm 19.7 14.2 1.7 30 8.2 SSE 20 26 11 14 1025.4 - 0.0
28/01:30pm 19.7 14.3 2.6 32 8.0 S 20 26 11 14 1026.0 - 0.0
28/01:00pm 19.0 14.2 2.4 33 7.6 SE 17 26 9 14 1026.5 - 0.0
28/12:30pm 18.3 13.8 2.2 34 7.3 SE 15 30 8 16 1027.0 - 0.0
28/12:00pm 18.2 13.7 2.1 34 7.3 ESE 15 20 8 11 1027.7 1027.7 0.0
28/11:30am 17.6 12.8 2.8 37 6.8 ESE 17 22 9 12 1028.3 - 0.0
28/11:00am 17.3 13.1 3.9 41 6.3 ESE 15 22 8 12 1028.6 - 0.0
28/10:30am 16.0 11.5 4.1 45 5.5 ESE 17 20 9 11 1028.8 - 0.0
28/10:00am 14.1 10.0 4.1 51 4.6 SE 15 20 8 11 1029.0 - 0.0
28/09:30am 12.7 8.2 4.2 56 3.9 SE 17 20 9 11 1028.8 - 0.0
28/09:00am 10.9 6.7 3.7 61 3.2 SE 15 19 8 10 1028.6 1028.6 0.0
28/08:30am 8.7 5.1 2.9 67 2.5 S 11 15 6 8 1028.4 - 0.0
28/08:00am 7.7 4.1 3.0 72 2.0 S 11 13 6 7 1028.0 - 0.0
28/07:30am 6.9 3.7 2.8 75 1.7 S 9 11 5 6 1027.3 - 0.0
28/07:00am 7.0 3.8 2.9 75 1.7 S 9 11 5 6 1027.0 - 0.0
28/06:30am 7.2 3.9 2.7 73 1.9 S 9 13 5 7 1026.7 - 0.0
28/06:00am 7.3 4.4 2.8 73 1.9 S 7 9 4 5 1026.6 1026.6 0.0
28/05:30am 8.1 5.3 3.2 71 2.1 SSE 7 9 4 5 1026.2 - 0.0
28/05:00am 8.7 5.5 3.3 69 2.3 SE 9 13 5 7 1025.9 - 0.0
28/04:30am 8.7 4.8 3.3 69 2.3 SE 13 15 7 8 1025.9 - 0.0
28/04:00am 8.9 5.0 3.3 68 2.4 SE 13 15 7 8 1025.9 - 0.0
28/03:30am 9.2 5.0 3.6 68 2.4 SSE 15 19 8 10 1025.5 - 0.0
28/03:00am 9.0 5.2 3.8 70 2.3 SSE 13 15 7 8 1025.6 1025.6 0.0
28/02:30am 8.3 5.1 3.0 69 2.3 S 9 11 5 6 1025.9 - 0.0
28/02:00am 8.6 5.8 3.0 68 2.4 S 7 9 4 5 1026.0 - 0.0
28/01:30am 8.6 5.7 2.8 67 2.5 SSE 7 7 4 4 1026.2 - 0.0
28/01:00am 9.3 6.1 3.1 65 2.7 SSW 9 11 5 6 1026.5 - 0.0
28/12:30am 9.3 5.7 2.9 64 2.7 SSW 11 11 6 6 1026.5 - 0.0
28/12:00am 10.0 6.0 2.8 61 3.1 SSW 13 15 7 8 1026.5 1026.5 0.0
 
Date/Time
EST
Temp
°C
App
Temp
°C
Dew
Point
°C
Rel
Hum
%
Delta-T
°C
Wind Press
QNH
hPa
Press
MSL
hPa
Rain since
9am
mm
Dir  Spd
km/h
Gust
km/h
Spd
kts
Gust
kts
27/11:30pm 10.7 6.7 3.0 59 3.3 SSW 13 13 7 7 1026.7 - 0.0

Other Formats:

Comma delimited format used in spreadsheet applications
http://www.bom.gov.au/fwo/IDQ60801/IDQ60801.95482.axf

JavaScript Object Notation format (JSON) in row-major order
http://www.bom.gov.au/fwo/IDQ60801/IDQ60801.95482.json